Aviation Digital Data Service (ADDS)

Output produced by METARs form (1736 UTC 16 June 2019)
found at http://www.aviationweather.gov/metar/data/
 
KGBD 161120Z 1612/1712 VRB04KT P6SM SCT250 
     FM161500 04008KT P6SM FEW250 
     FM170800 01006KT P6SM BKN250
       
KGCC 161720Z 1618/1718 34009KT P6SM VCSH SCT040 BKN100 
     FM162000 03009KT P6SM -TSRA BKN040CB 
     FM170100 VRB05KT P6SM VCTS BKN060CB 
     FM170400 VRB06KT P6SM VCSH BKN060
       
KGCK 161722Z 1618/1718 12008KT P6SM SCT100
       
KGCN 161129Z 1612/1712 VRB05KT P6SM FEW120 
     FM161800 24010G16KT P6SM SCT070 BKN120 
     TEMPO 1619/1623 VRB15G25KT 6SM -TSRA BKN070CB 
     FM170300 VRB05KT P6SM FEW100 BKN250
       
KGDV 161734Z 1618/1718 VRB06KT P6SM SCT070 
     FM162100 31007KT P6SM BKN080 
     FM170300 04007KT P6SM SCT090
       
KGEG 161720Z 1618/1718 22003KT P6SM SCT130 SCT240 
     FM170200 VRB05KT P6SM SCT070 BKN250 
     FM170500 17005KT P6SM SCT090 BKN250
       
TAF KGFA 161101Z 1611/1717 VRB06KT 9999 SCT050 SCT080 QNH3002INS 
     TEMPO 1618/1624 VCSH TX22/1621Z TN09/1711Z
       
KGFK 161559Z 1616/1712 10006KT P6SM BKN025 
     TEMPO 1616/1617 6SM RA OVC020 
     FM161700 12007KT P6SM VCSH OVC025 
     FM162000 VRB06KT P6SM OVC015
       
KGFL 161631Z 1617/1712 17006KT 4SM -SHRA BR SCT006 OVC015 
     TEMPO 1617/1620 2SM -SHRA BR BKN006 OVC015 
     FM162000 VRB04KT 4SM -RA BR OVC015 
     FM162300 04005KT 6SM BR VCSH SCT008 OVC015 
     FM170000 02004KT P6SM SCT015 BKN025 
     FM170600 00000KT 4SM BR SCT008
       
KGGG 161722Z 1618/1718 19012KT P6SM VCTS BKN050CB 
     FM170000 17013KT P6SM OVC050 
     FM170400 15006KT 4SM -TSRA BR OVC050CB 
     FM171000 17004KT P6SM -RA OVC025 
     FM171500 20010KT P6SM OVC025
       
KGGW 161734Z 1618/1718 32007KT P6SM SCT060 
     TEMPO 1619/1621 32020KT P6SM -TSRA BKN040CB 
     FM162100 32009KT P6SM BKN070 
     FM170500 06007KT P6SM SCT080
       
KGJT 161720Z 1618/1718 15008KT P6SM FEW100 SCT120 
     FM161900 29012G20KT P6SM FEW120 SCT250 
     FM170300 10007KT P6SM SCT090 BKN120 
     FM170900 13005KT P6SM SCT090 BKN120
       
KGKY 161720Z 1618/1718 14013KT P6SM SCT025 BKN200 
     TEMPO 1618/1620 BKN025 
     FM162000 17016KT P6SM VCTS BKN040CB 
     TEMPO 1621/1624 5SM TSRA BKN035CB 
     FM170400 12014KT P6SM BKN050
       
KGLD 161720Z 1618/1718 16011KT P6SM SCT050 SCT200 
     FM170400 18007KT P6SM BKN120
       
KGLH 161730Z 1618/1718 22015G25KT 4SM -TSRA BKN030CB 
     FM161900 28005KT P6SM -RA SCT030 BKN080 
     FM162200 21007KT P6SM OVC060 
     FM171400 18009KT P6SM BKN050
       
KGLS 161720Z 1618/1718 16018KT P6SM VCSH SCT025 
     FM162000 17015KT P6SM SCT025 BKN150 
     FM170300 16016G24KT P6SM SCT015 BKN025 
     FM170600 16015KT P6SM VCTS SCT015 OVC025CB 
     FM171000 17015KT P6SM VCSH SCT025 SCT250
       
KGMU 161734Z 1618/1718 22009G15KT P6SM SCT050 
     FM162100 22006KT P6SM SCT050 SCT150 
     FM170100 21005KT P6SM SCT150 
     FM171600 22006KT P6SM SCT050
       
KGNV 161720Z 1618/1718 10008KT P6SM VCTS SCT035CB BKN100 BKN200 
     TEMPO 1619/1623 VRB15G25KT 3SM +TSRA BR SCT025 BKN035CB OVC080 
     FM170200 10005KT P6SM SCT025 BKN070 OVC150 
     FM171500 13004KT P6SM VCSH SCT030
       
KGON 161723Z 1618/1718 19010KT P6SM FEW060 BKN100 
     FM162300 21008KT 6SM -SHRA BR BKN040 
     FM170300 26004KT P6SM BKN040 BKN100 
     FM170800 VRB03KT P6SM SCT010 BKN040 
     FM171300 03006KT P6SM FEW010 SCT040 BKN150 
     FM171600 18007KT P6SM SCT040 BKN150
       
KGPT 161142Z 1612/1712 17003KT P6SM FEW025 BKN050 
     FM161600 19005KT P6SM BKN040 
     FM161800 19008KT P6SM VCTS BKN050CB 
     FM170000 16006KT P6SM BKN250
       
KGRB 161732Z 1618/1718 04012KT P6SM BKN050 
     TEMPO 1618/1620 5SM -SHRA BKN030 
     FM162000 05008KT P6SM OVC050 
     FM170200 VRB03KT P6SM BKN100 
     FM170500 03002KT P6SM SCT120 
     FM171400 07005KT P6SM BKN100
       
TAF KGRF 161309Z 1613/1719 VRB06KT 9999 OVC004 QNH3008INS 
     BECMG 1615/1616 VRB06KT 9999 BKN006 QNH3007INS 
     BECMG 1618/1619 28009KT 9999 SCT010 QNH3001INS 
     BECMG 1709/1710 VRB06KT 9999 BKN015 QNH3007INS 
     BECMG 1712/1713 VRB06KT 4800 BR BKN008 QNH3008INS 
     BECMG 1718/1719 VRB06KT 9999 NSW SCT015 QNH3013INS TX24/1623Z TN11/1613Z
       
KGRI 161120Z 1612/1712 32007KT P6SM SCT200 
     FM161700 02008KT P6SM SCT200 
     FM162000 06010KT P6SM FEW070 SCT150 
     FM170300 09006KT P6SM BKN120
       
TAF KGRK 161600Z 1616/1722 17010G15KT 9999 FEW030 BKN040 QNH2977INS 
     BECMG 1622/1623 17012G18KT 9000 -SHRA SCT040 BKN200 QNH2976INS 
     TEMPO 1623/1702 VRB25G35KT 8000 -TSRA BKN050CB 
     BECMG 1702/1703 16012KT 9999 NSW BKN030 QNH2984INS 
     BECMG 1708/1709 18009KT 9999 BKN020 QNH2992INS 
     BECMG 1714/1715 19010G15KT 9999 SCT040 QNH2986INS 
     BECMG 1721/1722 20012KT 9000 -SHRA BKN040 QNH2983INS TX34/1621Z TN24/1712Z
       
KGRR 161147Z 1612/1712 07010KT P6SM VCSH OVC015 
     FM161400 07010KT 6SM -SHRA OVC015 
     FM162000 06008KT P6SM OVC015
       
KGSO 161727Z 1618/1718 22010G17KT P6SM FEW050 SCT100 SCT250 
     FM162300 22007KT P6SM SCT250
       
KGSP 161734Z 1618/1718 21008G15KT P6SM SCT050 
     FM162100 22006KT P6SM SCT050 SCT150 
     FM170100 21005KT P6SM SCT150 
     FM171600 22006KT P6SM SCT050
       
KGTF 161720Z 1618/1718 VRB06KT P6SM SCT070 SCT200 
     TEMPO 1623/1703 VRB20G30KT -TSRA SCT025 OVC050CB
       
KGTR 161730Z 1618/1718 20007KT P6SM SCT040 
     FM162300 22010G20KT P6SM VCTS BKN040CB 
     FM170200 15005KT P6SM OVC100
       
KGUC 161720Z 1618/1718 VRB04KT P6SM FEW070 FEW200 
     FM161900 27010G18KT P6SM VCTS SCT080CB BKN150 
     FM170200 VRB04KT P6SM FEW090 SCT150
       
KGUP 161136Z 1612/1712 VRB04KT P6SM BKN110 
     FM161900 25010KT P6SM SCT100 
     FM162200 27011G21KT P6SM VCSH BKN100 
     FM170300 VRB05KT P6SM BKN100
       
TAF AMD KGUS 161324Z 1613/1717 24012G18KT 6000 BR BKN008 OVC020 QNH2971INS 
     TEMPO 1613/1617 24015G25KT 4800 -RA BR BKN010 OVC030 
     BECMG 1617/1618 22009KT 9999 VCTS SCT007 BKN025CB QNH2980INS 
     TEMPO 1618/1623 25020G30KT 4800 -TSRA BKN030 OVC045CB 
     BECMG 1701/1702 04006KT 8000 BR BKN030 QNH2986INS 
     BECMG 1706/1707 VRB06KT 8000 BR BKN010 QNH2995INS TX27/1621Z TN18/1706Z
       
KGWO 161730Z 1618/1718 20010KT P6SM VCSH BKN040 
     FM162030 22015G25KT 5SM -TSRA BKN030CB 
     FM162200 28005KT P6SM -RA SCT030 OVC080 
     FM170000 19005KT P6SM OVC060 
     FM171400 18009KT P6SM BKN050
       
KGYY 161628Z 1616/1712 34007KT 2SM BR OVC004 
     TEMPO 1616/1617 1SM BR 
     FM161800 35009KT 4SM BR OVC006 
     TEMPO 1618/1619 4SM BR OVC004 
     FM162100 35011G18KT 6SM BR OVC012 
     FM170100 36010KT 4SM BR BKN007 
     FM170500 35008KT 1SM BR BKN003